KRDG/RDG METAR and TAF weather

Enter ICAO airport designator
Station Type Date Time Source
KRDG METAR 2020/07/09 23:54 UTC NOAA

KRDG 092354Z AUTO 14006KT 10SM CLR 31/19 A2992 RMK AO2 SLP133 T03110189 10333 20311 55002


Station Type Date Time Source
KRDG Decoded METAR 2020/07/09 23:54 UTC NOAA

READING REGIONAL AIRPORT, PA, United States (KRDG) 40-22N 075-58W 109M
Jul 09, 2020 - 07:54 PM EDT / 2020.07.09 2354 UTC
Wind: from the SE (140 degrees) at 7 MPH (6 KT):0
Visibility: 10 mile(s):0
Sky conditions: clear
Temperature: 88.0 F (31.1 C)
Dew Point: 66.0 F (18.9 C)
Relative Humidity: 48%
Pressure (altimeter): 29.92 in. Hg (1013 hPa)
Pressure tendency: 0.01 inches (0.2 hPa) lower than three hours ago
ob: KRDG 092354Z AUTO 14006KT 10SM CLR 31/19 A2992 RMK AO2 SLP133 T03110189 10333 20311 55002
cycle: 0

Station Type Date Time Source
KRDG TAF 2020/07/09 18:27 UTC NOAA

TAF KRDG 091724Z 0918/1018 14004KT P6SM SCT040
FM100800 07004KT P6SM BKN025
FM101200 03006KT P6SM -SHRA OVC015
FM101400 04008KT 4SM SHRA BR OVC012

Example: see airport list